sensor_id;sensor_type;location;lat;lon;timestamp;temperature;humidity
70421;SHT31;57848;51.938;15.520;2023-02-27T00:01:57;0.34;76.69
70421;SHT31;57848;51.938;15.520;2023-02-27T00:04:23;0.32;76.29
70421;SHT31;57848;51.938;15.520;2023-02-27T00:06:48;0.24;76.14
70421;SHT31;57848;51.938;15.520;2023-02-27T00:09:13;0.19;76.15
70421;SHT31;57848;51.938;15.520;2023-02-27T00:11:39;0.21;76.17
70421;SHT31;57848;51.938;15.520;2023-02-27T00:14:04;0.18;76.67
70421;SHT31;57848;51.938;15.520;2023-02-27T00:16:30;0.08;76.75
70421;SHT31;57848;51.938;15.520;2023-02-27T00:18:55;-0.02;76.44
70421;SHT31;57848;51.938;15.520;2023-02-27T00:21:23;-0.11;77.35
70421;SHT31;57848;51.938;15.520;2023-02-27T00:23:48;-0.13;77.24
70421;SHT31;57848;51.938;15.520;2023-02-27T00:26:15;-0.17;77.03
70421;SHT31;57848;51.938;15.520;2023-02-27T00:28:41;-0.13;77.18
70421;SHT31;57848;51.938;15.520;2023-02-27T00:31:06;-0.14;77.61
70421;SHT31;57848;51.938;15.520;2023-02-27T00:33:32;-0.10;77.47
70421;SHT31;57848;51.938;15.520;2023-02-27T00:35:59;-0.06;77.63
70421;SHT31;57848;51.938;15.520;2023-02-27T00:38:26;-0.04;77.84
70421;SHT31;57848;51.938;15.520;2023-02-27T00:40:52;0.03;76.78
70421;SHT31;57848;51.938;15.520;2023-02-27T00:43:17;0.10;76.78
70421;SHT31;57848;51.938;15.520;2023-02-27T00:45:43;0.05;76.73
70421;SHT31;57848;51.938;15.520;2023-02-27T00:48:08;0.10;77.41
70421;SHT31;57848;51.938;15.520;2023-02-27T00:50:33;0.04;77.15
70421;SHT31;57848;51.938;15.520;2023-02-27T00:52:59;0.04;76.77
70421;SHT31;57848;51.938;15.520;2023-02-27T00:55:24;-0.02;76.37
70421;SHT31;57848;51.938;15.520;2023-02-27T00:57:51;-0.06;77.10
70421;SHT31;57848;51.938;15.520;2023-02-27T01:00:16;-0.07;77.18
70421;SHT31;57848;51.938;15.520;2023-02-27T01:02:42;-0.09;77.13
70421;SHT31;57848;51.938;15.520;2023-02-27T01:05:08;-0.06;77.65
70421;SHT31;57848;51.938;15.520;2023-02-27T01:07:34;-0.13;77.59
70421;SHT31;57848;51.938;15.520;2023-02-27T01:09:59;-0.18;77.33
70421;SHT31;57848;51.938;15.520;2023-02-27T01:12:26;-0.28;78.10
70421;SHT31;57848;51.938;15.520;2023-02-27T01:14:51;-0.30;78.20
70421;SHT31;57848;51.938;15.520;2023-02-27T01:17:17;-0.35;78.51
70421;SHT31;57848;51.938;15.520;2023-02-27T01:19:42;-0.45;79.26
70421;SHT31;57848;51.938;15.520;2023-02-27T01:22:08;-0.64;79.90
70421;SHT31;57848;51.938;15.520;2023-02-27T01:24:33;-0.69;79.94
70421;SHT31;57848;51.938;15.520;2023-02-27T01:26:59;-0.78;80.10
70421;SHT31;57848;51.938;15.520;2023-02-27T01:29:24;-0.81;80.34
70421;SHT31;57848;51.938;15.520;2023-02-27T01:31:50;-0.75;80.57
70421;SHT31;57848;51.938;15.520;2023-02-27T01:34:16;-0.81;81.04
70421;SHT31;57848;51.938;15.520;2023-02-27T01:36:41;-0.95;81.33
70421;SHT31;57848;51.938;15.520;2023-02-27T01:39:07;-0.92;81.57
70421;SHT31;57848;51.938;15.520;2023-02-27T01:41:32;-0.97;81.79
70421;SHT31;57848;51.938;15.520;2023-02-27T01:44:03;-0.92;82.15
70421;SHT31;57848;51.938;15.520;2023-02-27T01:46:30;-1.02;82.54
70421;SHT31;57848;51.938;15.520;2023-02-27T01:49:06;-1.12;82.36
70421;SHT31;57848;51.938;15.520;2023-02-27T01:51:36;-1.12;82.89
70421;SHT31;57848;51.938;15.520;2023-02-27T01:54:04;-1.15;82.66
70421;SHT31;57848;51.938;15.520;2023-02-27T01:56:31;-1.16;83.13
70421;SHT31;57848;51.938;15.520;2023-02-27T01:59:00;-1.21;82.44
70421;SHT31;57848;51.938;15.520;2023-02-27T02:01:28;-1.26;82.57
70421;SHT31;57848;51.938;15.520;2023-02-27T02:04:00;-1.26;82.92
70421;SHT31;57848;51.938;15.520;2023-02-27T02:06:31;-1.33;82.78
70421;SHT31;57848;51.938;15.520;2023-02-27T02:08:58;-1.26;82.97
70421;SHT31;57848;51.938;15.520;2023-02-27T02:11:25;-1.30;83.04
70421;SHT31;57848;51.938;15.520;2023-02-27T02:13:57;-1.29;82.83
70421;SHT31;57848;51.938;15.520;2023-02-27T02:21:32;-1.33;83.21
70421;SHT31;57848;51.938;15.520;2023-02-27T02:32:31;-1.43;83.77
70421;SHT31;57848;51.938;15.520;2023-02-27T02:38:22;-1.44;83.81
70421;SHT31;57848;51.938;15.520;2023-02-27T02:41:10;-1.42;83.95
70421;SHT31;57848;51.938;15.520;2023-02-27T02:46:46;-1.54;84.40
70421;SHT31;57848;51.938;15.520;2023-02-27T02:49:27;-1.58;84.34
70421;SHT31;57848;51.938;15.520;2023-02-27T02:52:28;-1.61;84.73
70421;SHT31;57848;51.938;15.520;2023-02-27T02:54:58;-1.58;84.71
70421;SHT31;57848;51.938;15.520;2023-02-27T02:57:31;-1.64;84.96
70421;SHT31;57848;51.938;15.520;2023-02-27T03:00:18;-1.63;85.23
70421;SHT31;57848;51.938;15.520;2023-02-27T03:02:48;-1.65;85.54
70421;SHT31;57848;51.938;15.520;2023-02-27T03:05:23;-1.50;85.40
70421;SHT31;57848;51.938;15.520;2023-02-27T03:07:59;-1.44;84.97
70421;SHT31;57848;51.938;15.520;2023-02-27T03:10:57;-1.39;84.76
70421;SHT31;57848;51.938;15.520;2023-02-27T03:18:59;-1.23;84.44
70421;SHT31;57848;51.938;15.520;2023-02-27T03:21:30;-1.23;84.35
70421;SHT31;57848;51.938;15.520;2023-02-27T03:23:59;-1.13;84.31
70421;SHT31;57848;51.938;15.520;2023-02-27T03:26:32;-1.03;84.23
70421;SHT31;57848;51.938;15.520;2023-02-27T03:29:02;-1.10;84.30
70421;SHT31;57848;51.938;15.520;2023-02-27T03:34:12;-1.13;84.39
70421;SHT31;57848;51.938;15.520;2023-02-27T03:39:26;-0.99;84.40
70421;SHT31;57848;51.938;15.520;2023-02-27T03:42:22;-1.00;84.04
70421;SHT31;57848;51.938;15.520;2023-02-27T03:45:17;-0.88;84.02
70421;SHT31;57848;51.938;15.520;2023-02-27T03:47:45;-0.84;83.82
70421;SHT31;57848;51.938;15.520;2023-02-27T03:50:11;-0.85;84.29
70421;SHT31;57848;51.938;15.520;2023-02-27T03:52:37;-0.78;84.34
70421;SHT31;57848;51.938;15.520;2023-02-27T03:55:10;-0.74;84.25
70421;SHT31;57848;51.938;15.520;2023-02-27T03:57:36;-0.74;84.53
70421;SHT31;57848;51.938;15.520;2023-02-27T04:00:04;-0.76;84.31
70421;SHT31;57848;51.938;15.520;2023-02-27T04:02:40;-0.74;84.53
70421;SHT31;57848;51.938;15.520;2023-02-27T04:05:06;-0.74;84.18
70421;SHT31;57848;51.938;15.520;2023-02-27T04:13:16;-0.61;84.21
70421;SHT31;57848;51.938;15.520;2023-02-27T04:25:05;-0.61;84.65
70421;SHT31;57848;51.938;15.520;2023-02-27T04:27:37;-0.64;84.43
70421;SHT31;57848;51.938;15.520;2023-02-27T04:30:27;-0.61;84.43
70421;SHT31;57848;51.938;15.520;2023-02-27T04:32:56;-0.54;84.63
70421;SHT31;57848;51.938;15.520;2023-02-27T04:35:30;-0.55;84.75
70421;SHT31;57848;51.938;15.520;2023-02-27T04:40:56;-0.50;84.79
70421;SHT31;57848;51.938;15.520;2023-02-27T04:43:23;-0.45;84.92
70421;SHT31;57848;51.938;15.520;2023-02-27T04:45:51;-0.47;84.99
70421;SHT31;57848;51.938;15.520;2023-02-27T04:48:23;-0.47;85.27
70421;SHT31;57848;51.938;15.520;2023-02-27T04:50:57;-0.45;85.55
70421;SHT31;57848;51.938;15.520;2023-02-27T04:53:25;-0.33;85.38
70421;SHT31;57848;51.938;15.520;2023-02-27T04:56:04;-0.33;85.22
70421;SHT31;57848;51.938;15.520;2023-02-27T04:58:43;-0.33;85.22
70421;SHT31;57848;51.938;15.520;2023-02-27T05:01:27;-0.34;85.32
70421;SHT31;57848;51.938;15.520;2023-02-27T05:03:56;-0.31;85.12
70421;SHT31;57848;51.938;15.520;2023-02-27T05:06:29;-0.23;85.13
70421;SHT31;57848;51.938;15.520;2023-02-27T05:11:35;-0.23;85.15
70421;SHT31;57848;51.938;15.520;2023-02-27T05:14:09;-0.17;84.82
70421;SHT31;57848;51.938;15.520;2023-02-27T05:16:40;-0.17;84.81
70421;SHT31;57848;51.938;15.520;2023-02-27T05:19:07;-0.18;85.14
70421;SHT31;57848;51.938;15.520;2023-02-27T05:21:37;-0.26;85.45
70421;SHT31;57848;51.938;15.520;2023-02-27T05:24:27;-0.17;85.63
70421;SHT31;57848;51.938;15.520;2023-02-27T05:27:06;-0.21;85.94
70421;SHT31;57848;51.938;15.520;2023-02-27T05:40:42;-0.31;87.19
70421;SHT31;57848;51.938;15.520;2023-02-27T05:43:13;-0.41;87.18
70421;SHT31;57848;51.938;15.520;2023-02-27T05:45:42;-0.33;87.34
70421;SHT31;57848;51.938;15.520;2023-02-27T05:48:14;-0.28;87.47
70421;SHT31;57848;51.938;15.520;2023-02-27T05:50:41;-0.30;87.55
70421;SHT31;57848;51.938;15.520;2023-02-27T05:53:12;-0.27;87.56
70421;SHT31;57848;51.938;15.520;2023-02-27T05:55:42;-0.17;87.09
70421;SHT31;57848;51.938;15.520;2023-02-27T06:03:21;-0.28;88.11
70421;SHT31;57848;51.938;15.520;2023-02-27T06:05:48;-0.28;88.50
70421;SHT31;57848;51.938;15.520;2023-02-27T06:08:14;-0.27;88.57
70421;SHT31;57848;51.938;15.520;2023-02-27T06:10:39;-0.23;88.36
70421;SHT31;57848;51.938;15.520;2023-02-27T06:13:04;-0.26;88.32
70421;SHT31;57848;51.938;15.520;2023-02-27T06:15:30;-0.26;88.22
70421;SHT31;57848;51.938;15.520;2023-02-27T06:17:55;-0.27;88.60
70421;SHT31;57848;51.938;15.520;2023-02-27T06:20:20;-0.33;88.70
70421;SHT31;57848;51.938;15.520;2023-02-27T06:22:46;-0.27;88.32
70421;SHT31;57848;51.938;15.520;2023-02-27T06:25:11;-0.27;88.55
70421;SHT31;57848;51.938;15.520;2023-02-27T06:27:37;-0.26;88.71
70421;SHT31;57848;51.938;15.520;2023-02-27T06:30:03;-0.35;88.99
70421;SHT31;57848;51.938;15.520;2023-02-27T06:32:31;-0.23;88.88
70421;SHT31;57848;51.938;15.520;2023-02-27T06:34:57;-0.20;88.81
70421;SHT31;57848;51.938;15.520;2023-02-27T06:37:22;-0.18;89.10
70421;SHT31;57848;51.938;15.520;2023-02-27T06:39:48;-0.26;88.76
70421;SHT31;57848;51.938;15.520;2023-02-27T06:42:13;-0.11;88.59
70421;SHT31;57848;51.938;15.520;2023-02-27T06:44:39;-0.07;88.47
70421;SHT31;57848;51.938;15.520;2023-02-27T06:49:34;0.04;88.78
70421;SHT31;57848;51.938;15.520;2023-02-27T06:51:59;0.05;88.47
70421;SHT31;57848;51.938;15.520;2023-02-27T06:54:24;0.14;88.40
70421;SHT31;57848;51.938;15.520;2023-02-27T06:56:50;0.10;88.04
70421;SHT31;57848;51.938;15.520;2023-02-27T06:59:16;0.08;88.32
70421;SHT31;57848;51.938;15.520;2023-02-27T07:01:41;0.13;88.37
70421;SHT31;57848;51.938;15.520;2023-02-27T07:04:10;0.10;88.34
70421;SHT31;57848;51.938;15.520;2023-02-27T07:06:37;-0.03;88.53
70421;SHT31;57848;51.938;15.520;2023-02-27T07:09:02;0.05;88.41
70421;SHT31;57848;51.938;15.520;2023-02-27T07:11:27;0.08;88.58
70421;SHT31;57848;51.938;15.520;2023-02-27T07:13:54;0.00;88.53
70421;SHT31;57848;51.938;15.520;2023-02-27T07:16:19;0.01;88.87
70421;SHT31;57848;51.938;15.520;2023-02-27T07:18:44;0.07;88.49
70421;SHT31;57848;51.938;15.520;2023-02-27T07:21:10;0.08;88.67
70421;SHT31;57848;51.938;15.520;2023-02-27T07:23:36;0.18;88.45
70421;SHT31;57848;51.938;15.520;2023-02-27T07:26:02;0.14;88.43
70421;SHT31;57848;51.938;15.520;2023-02-27T07:28:27;0.29;88.43
70421;SHT31;57848;51.938;15.520;2023-02-27T07:30:53;0.31;88.27
70421;SHT31;57848;51.938;15.520;2023-02-27T07:33:20;0.26;88.27
70421;SHT31;57848;51.938;15.520;2023-02-27T07:35:46;0.21;88.33
70421;SHT31;57848;51.938;15.520;2023-02-27T07:38:11;0.26;88.32
70421;SHT31;57848;51.938;15.520;2023-02-27T07:40:37;0.29;88.07
70421;SHT31;57848;51.938;15.520;2023-02-27T07:43:02;0.34;88.33
70421;SHT31;57848;51.938;15.520;2023-02-27T07:45:28;0.24;87.98
70421;SHT31;57848;51.938;15.520;2023-02-27T07:47:53;0.28;88.08
70421;SHT31;57848;51.938;15.520;2023-02-27T07:50:19;0.22;87.98
70421;SHT31;57848;51.938;15.520;2023-02-27T07:52:44;0.31;88.23
70421;SHT31;57848;51.938;15.520;2023-02-27T07:55:11;0.31;87.99
70421;SHT31;57848;51.938;15.520;2023-02-27T07:57:37;0.22;88.26
70421;SHT31;57848;51.938;15.520;2023-02-27T08:00:04;0.46;87.75
70421;SHT31;57848;51.938;15.520;2023-02-27T08:02:37;0.51;87.76
70421;SHT31;57848;51.938;15.520;2023-02-27T08:05:03;0.66;87.44
70421;SHT31;57848;51.938;15.520;2023-02-27T08:07:28;0.66;86.96
70421;SHT31;57848;51.938;15.520;2023-02-27T08:09:54;0.85;86.74
70421;SHT31;57848;51.938;15.520;2023-02-27T08:12:19;0.87;86.54
70421;SHT31;57848;51.938;15.520;2023-02-27T08:14:45;0.90;86.55
70421;SHT31;57848;51.938;15.520;2023-02-27T08:17:10;0.96;86.26
70421;SHT31;57848;51.938;15.520;2023-02-27T08:19:35;1.07;85.70
70421;SHT31;57848;51.938;15.520;2023-02-27T08:22:01;1.22;85.56
70421;SHT31;57848;51.938;15.520;2023-02-27T08:24:28;1.26;85.60
70421;SHT31;57848;51.938;15.520;2023-02-27T08:26:53;1.34;85.51
70421;SHT31;57848;51.938;15.520;2023-02-27T08:29:18;1.31;84.95
70421;SHT31;57848;51.938;15.520;2023-02-27T08:31:44;1.37;85.22
70421;SHT31;57848;51.938;15.520;2023-02-27T08:34:11;1.35;84.91
70421;SHT31;57848;51.938;15.520;2023-02-27T08:36:37;1.47;84.55
70421;SHT31;57848;51.938;15.520;2023-02-27T08:39:02;1.52;84.16
70421;SHT31;57848;51.938;15.520;2023-02-27T08:41:28;1.52;83.82
70421;SHT31;57848;51.938;15.520;2023-02-27T08:43:53;1.59;84.00
70421;SHT31;57848;51.938;15.520;2023-02-27T08:46:19;1.61;84.17
70421;SHT31;57848;51.938;15.520;2023-02-27T08:48:45;1.61;84.04
70421;SHT31;57848;51.938;15.520;2023-02-27T08:51:10;1.59;84.01
70421;SHT31;57848;51.938;15.520;2023-02-27T08:53:36;1.56;84.56
70421;SHT31;57848;51.938;15.520;2023-02-27T08:56:01;1.56;84.40
70421;SHT31;57848;51.938;15.520;2023-02-27T08:58:26;1.68;83.45
70421;SHT31;57848;51.938;15.520;2023-02-27T09:00:53;1.72;83.72
70421;SHT31;57848;51.938;15.520;2023-02-27T09:03:19;1.79;83.86
70421;SHT31;57848;51.938;15.520;2023-02-27T09:05:47;1.83;83.49
70421;SHT31;57848;51.938;15.520;2023-02-27T09:08:13;1.93;83.27
70421;SHT31;57848;51.938;15.520;2023-02-27T09:10:39;1.95;83.45
70421;SHT31;57848;51.938;15.520;2023-02-27T09:13:04;2.12;82.88
70421;SHT31;57848;51.938;15.520;2023-02-27T09:15:30;2.10;82.67
70421;SHT31;57848;51.938;15.520;2023-02-27T09:17:57;2.13;82.26
70421;SHT31;57848;51.938;15.520;2023-02-27T09:20:27;2.26;81.90
70421;SHT31;57848;51.938;15.520;2023-02-27T09:22:53;2.29;81.36
70421;SHT31;57848;51.938;15.520;2023-02-27T09:25:19;2.45;81.07
70421;SHT31;57848;51.938;15.520;2023-02-27T09:27:44;2.61;80.33
70421;SHT31;57848;51.938;15.520;2023-02-27T09:30:10;2.45;80.67
70421;SHT31;57848;51.938;15.520;2023-02-27T09:32:36;2.51;80.10
70421;SHT31;57848;51.938;15.520;2023-02-27T09:35:02;2.55;80.25
70421;SHT31;57848;51.938;15.520;2023-02-27T09:37:28;2.64;79.84
70421;SHT31;57848;51.938;15.520;2023-02-27T09:39:53;2.60;79.98
70421;SHT31;57848;51.938;15.520;2023-02-27T09:42:27;2.70;79.57
70421;SHT31;57848;51.938;15.520;2023-02-27T09:45:00;2.85;79.28
70421;SHT31;57848;51.938;15.520;2023-02-27T09:47:34;2.73;79.59
70421;SHT31;57848;51.938;15.520;2023-02-27T09:53:03;2.91;78.79
70421;SHT31;57848;51.938;15.520;2023-02-27T09:55:32;2.92;78.71
70421;SHT31;57848;51.938;15.520;2023-02-27T09:58:04;2.95;78.29
70421;SHT31;57848;51.938;15.520;2023-02-27T10:00:50;3.09;78.33
70421;SHT31;57848;51.938;15.520;2023-02-27T10:03:29;3.26;78.58
70421;SHT31;57848;51.938;15.520;2023-02-27T10:06:24;3.26;77.01
70421;SHT31;57848;51.938;15.520;2023-02-27T10:16:55;3.67;76.30
70421;SHT31;57848;51.938;15.520;2023-02-27T10:19:26;3.63;76.06
70421;SHT31;57848;51.938;15.520;2023-02-27T10:21:54;3.57;76.47
70421;SHT31;57848;51.938;15.520;2023-02-27T10:24:24;3.60;76.57
70421;SHT31;57848;51.938;15.520;2023-02-27T10:26:53;3.57;75.72
70421;SHT31;57848;51.938;15.520;2023-02-27T10:29:30;3.56;76.44
70421;SHT31;57848;51.938;15.520;2023-02-27T10:34:46;3.67;75.72
70421;SHT31;57848;51.938;15.520;2023-02-27T10:37:14;3.62;76.40
70421;SHT31;57848;51.938;15.520;2023-02-27T10:39:55;3.88;75.49
70421;SHT31;57848;51.938;15.520;2023-02-27T10:42:23;3.98;75.10
70421;SHT31;57848;51.938;15.520;2023-02-27T10:44:50;3.97;74.13
70421;SHT31;57848;51.938;15.520;2023-02-27T10:47:20;4.26;74.06
70421;SHT31;57848;51.938;15.520;2023-02-27T10:49:47;4.21;73.47
70421;SHT31;57848;51.938;15.520;2023-02-27T10:52:15;4.22;72.82
70421;SHT31;57848;51.938;15.520;2023-02-27T10:54:41;4.32;73.28
70421;SHT31;57848;51.938;15.520;2023-02-27T10:57:35;4.28;73.83
70421;SHT31;57848;51.938;15.520;2023-02-27T11:00:09;4.62;72.59
70421;SHT31;57848;51.938;15.520;2023-02-27T11:02:49;4.69;71.48
70421;SHT31;57848;51.938;15.520;2023-02-27T11:05:23;4.94;70.50
70421;SHT31;57848;51.938;15.520;2023-02-27T11:07:49;5.20;70.04
70421;SHT31;57848;51.938;15.520;2023-02-27T11:10:26;5.79;69.32
70421;SHT31;57848;51.938;15.520;2023-02-27T11:15:26;6.52;65.88
70421;SHT31;57848;51.938;15.520;2023-02-27T11:17:52;6.48;62.88
70421;SHT31;57848;51.938;15.520;2023-02-27T11:23:14;6.10;64.09
70421;SHT31;57848;51.938;15.520;2023-02-27T11:25:41;6.07;64.03
70421;SHT31;57848;51.938;15.520;2023-02-27T11:28:20;8.15;60.93
70421;SHT31;57848;51.938;15.520;2023-02-27T11:30:55;9.45;52.11
70421;SHT31;57848;51.938;15.520;2023-02-27T11:33:22;8.37;52.64
70421;SHT31;57848;51.938;15.520;2023-02-27T11:35:51;7.28;55.08
70421;SHT31;57848;51.938;15.520;2023-02-27T11:38:25;6.64;57.71
70421;SHT31;57848;51.938;15.520;2023-02-27T11:43:27;5.51;60.52
70421;SHT31;57848;51.938;15.520;2023-02-27T11:46:02;5.17;60.96
70421;SHT31;57848;51.938;15.520;2023-02-27T11:48:39;4.86;62.06
70421;SHT31;57848;51.938;15.520;2023-02-27T11:56:26;4.43;63.71
70421;SHT31;57848;51.938;15.520;2023-02-27T12:04:46;4.39;63.22
70421;SHT31;57848;51.938;15.520;2023-02-27T12:09:45;4.12;64.72
70421;SHT31;57848;51.938;15.520;2023-02-27T12:12:18;4.06;65.46
70421;SHT31;57848;51.938;15.520;2023-02-27T12:20:39;3.87;67.55
70421;SHT31;57848;51.938;15.520;2023-02-27T12:23:17;3.74;67.85
70421;SHT31;57848;51.938;15.520;2023-02-27T12:25:52;3.64;68.30
70421;SHT31;57848;51.938;15.520;2023-02-27T12:33:31;3.47;70.66
70421;SHT31;57848;51.938;15.520;2023-02-27T12:36:00;3.50;70.40
70421;SHT31;57848;51.938;15.520;2023-02-27T12:38:26;3.62;69.81
70421;SHT31;57848;51.938;15.520;2023-02-27T12:49:24;3.87;66.83
70421;SHT31;57848;51.938;15.520;2023-02-27T12:52:02;3.88;64.50
70421;SHT31;57848;51.938;15.520;2023-02-27T12:57:53;4.14;63.57
70421;SHT31;57848;51.938;15.520;2023-02-27T13:00:25;4.02;63.66
70421;SHT31;57848;51.938;15.520;2023-02-27T13:05:52;4.21;64.27
70421;SHT31;57848;51.938;15.520;2023-02-27T13:08:46;4.22;64.15
70421;SHT31;57848;51.938;15.520;2023-02-27T13:11:40;4.38;63.43
70421;SHT31;57848;51.938;15.520;2023-02-27T13:14:26;4.38;63.38
70421;SHT31;57848;51.938;15.520;2023-02-27T13:17:03;4.55;62.28
70421;SHT31;57848;51.938;15.520;2023-02-27T13:19:41;4.52;60.56
70421;SHT31;57848;51.938;15.520;2023-02-27T13:22:16;4.48;59.53
70421;SHT31;57848;51.938;15.520;2023-02-27T13:24:51;4.52;59.59
70421;SHT31;57848;51.938;15.520;2023-02-27T13:27:23;4.57;60.52
70421;SHT31;57848;51.938;15.520;2023-02-27T13:32:48;4.67;60.49
70421;SHT31;57848;51.938;15.520;2023-02-27T13:35:21;4.65;58.46
70421;SHT31;57848;51.938;15.520;2023-02-27T13:37:56;4.79;59.02
70421;SHT31;57848;51.938;15.520;2023-02-27T13:40:33;4.66;59.38
70421;SHT31;57848;51.938;15.520;2023-02-27T13:46:02;4.63;58.04
70421;SHT31;57848;51.938;15.520;2023-02-27T13:48:43;4.77;58.13
70421;SHT31;57848;51.938;15.520;2023-02-27T13:59:29;5.34;52.66
70421;SHT31;57848;51.938;15.520;2023-02-27T14:01:58;5.15;52.42
70421;SHT31;57848;51.938;15.520;2023-02-27T14:04:29;5.03;52.09
70421;SHT31;57848;51.938;15.520;2023-02-27T14:07:01;4.93;53.24
70421;SHT31;57848;51.938;15.520;2023-02-27T14:09:33;4.70;52.55
70421;SHT31;57848;51.938;15.520;2023-02-27T14:12:02;4.52;53.05
70421;SHT31;57848;51.938;15.520;2023-02-27T14:14:44;4.42;53.84
70421;SHT31;57848;51.938;15.520;2023-02-27T14:17:12;4.34;54.50
70421;SHT31;57848;51.938;15.520;2023-02-27T14:24:46;4.08;55.70
70421;SHT31;57848;51.938;15.520;2023-02-27T14:27:22;3.99;56.19
70421;SHT31;57848;51.938;15.520;2023-02-27T14:29:51;3.97;55.93
70421;SHT31;57848;51.938;15.520;2023-02-27T14:32:20;3.97;57.27
70421;SHT31;57848;51.938;15.520;2023-02-27T14:34:47;3.91;56.96
70421;SHT31;57848;51.938;15.520;2023-02-27T14:37:16;3.85;56.41
70421;SHT31;57848;51.938;15.520;2023-02-27T14:39:42;3.80;56.86
70421;SHT31;57848;51.938;15.520;2023-02-27T14:45:12;3.67;57.67
70421;SHT31;57848;51.938;15.520;2023-02-27T14:47:39;3.70;58.32
70421;SHT31;57848;51.938;15.520;2023-02-27T14:50:19;3.63;58.96
70421;SHT31;57848;51.938;15.520;2023-02-27T14:52:45;3.60;57.81
70421;SHT31;57848;51.938;15.520;2023-02-27T14:55:17;3.54;57.92
70421;SHT31;57848;51.938;15.520;2023-02-27T15:00:56;3.59;59.26
70421;SHT31;57848;51.938;15.520;2023-02-27T15:03:29;3.59;58.09
70421;SHT31;57848;51.938;15.520;2023-02-27T15:06:00;3.54;58.65
70421;SHT31;57848;51.938;15.520;2023-02-27T15:08:38;3.50;59.20
70421;SHT31;57848;51.938;15.520;2023-02-27T15:11:04;3.46;58.90
70421;SHT31;57848;51.938;15.520;2023-02-27T15:13:36;3.43;59.04
70421;SHT31;57848;51.938;15.520;2023-02-27T15:19:10;3.36;60.36
70421;SHT31;57848;51.938;15.520;2023-02-27T15:21:40;3.37;58.92
70421;SHT31;57848;51.938;15.520;2023-02-27T15:24:07;3.39;58.67
70421;SHT31;57848;51.938;15.520;2023-02-27T15:26:43;3.30;59.05
70421;SHT31;57848;51.938;15.520;2023-02-27T15:29:17;3.27;59.41
70421;SHT31;57848;51.938;15.520;2023-02-27T15:31:45;3.19;59.33
70421;SHT31;57848;51.938;15.520;2023-02-27T15:34:12;3.19;60.20
70421;SHT31;57848;51.938;15.520;2023-02-27T15:36:51;3.18;60.20
70421;SHT31;57848;51.938;15.520;2023-02-27T15:39:20;3.18;59.42
70421;SHT31;57848;51.938;15.520;2023-02-27T15:41:52;3.15;58.70
70421;SHT31;57848;51.938;15.520;2023-02-27T15:44:23;3.04;58.92
70421;SHT31;57848;51.938;15.520;2023-02-27T15:46:50;3.11;60.29
70421;SHT31;57848;51.938;15.520;2023-02-27T15:49:19;3.06;59.32
70421;SHT31;57848;51.938;15.520;2023-02-27T15:51:46;3.01;59.08
70421;SHT31;57848;51.938;15.520;2023-02-27T15:54:12;2.96;58.63
70421;SHT31;57848;51.938;15.520;2023-02-27T15:56:38;2.94;58.86
70421;SHT31;57848;51.938;15.520;2023-02-27T15:59:05;2.95;60.25
70421;SHT31;57848;51.938;15.520;2023-02-27T16:01:31;2.89;60.37
70421;SHT31;57848;51.938;15.520;2023-02-27T16:04:01;2.92;59.74
70421;SHT31;57848;51.938;15.520;2023-02-27T16:06:38;2.87;59.04
70421;SHT31;57848;51.938;15.520;2023-02-27T16:09:20;2.87;60.21
70421;SHT31;57848;51.938;15.520;2023-02-27T16:11:47;2.85;60.22
70421;SHT31;57848;51.938;15.520;2023-02-27T16:14:36;2.85;60.09
70421;SHT31;57848;51.938;15.520;2023-02-27T16:17:02;2.77;60.59
70421;SHT31;57848;51.938;15.520;2023-02-27T16:19:30;2.77;59.73
70421;SHT31;57848;51.938;15.520;2023-02-27T16:22:11;2.81;59.75
70421;SHT31;57848;51.938;15.520;2023-02-27T16:24:42;2.70;60.09
70421;SHT31;57848;51.938;15.520;2023-02-27T16:27:25;2.62;61.43
70421;SHT31;57848;51.938;15.520;2023-02-27T16:29:53;2.60;61.60
70421;SHT31;57848;51.938;15.520;2023-02-27T16:32:27;2.57;61.99
70421;SHT31;57848;51.938;15.520;2023-02-27T16:35:16;2.54;61.30
70421;SHT31;57848;51.938;15.520;2023-02-27T16:37:42;2.58;62.25
70421;SHT31;57848;51.938;15.520;2023-02-27T16:40:11;2.54;62.96
70421;SHT31;57848;51.938;15.520;2023-02-27T16:42:37;2.45;63.36
70421;SHT31;57848;51.938;15.520;2023-02-27T16:45:04;2.45;63.05
70421;SHT31;57848;51.938;15.520;2023-02-27T16:47:29;2.48;62.61
70421;SHT31;57848;51.938;15.520;2023-02-27T16:49:57;2.40;62.78
70421;SHT31;57848;51.938;15.520;2023-02-27T16:52:22;2.44;63.21
70421;SHT31;57848;51.938;15.520;2023-02-27T16:54:47;2.45;63.85
70421;SHT31;57848;51.938;15.520;2023-02-27T16:57:13;2.47;62.94
70421;SHT31;57848;51.938;15.520;2023-02-27T16:59:39;2.45;63.91
70421;SHT31;57848;51.938;15.520;2023-02-27T17:02:13;2.41;63.24
70421;SHT31;57848;51.938;15.520;2023-02-27T17:04:39;2.33;64.37
70421;SHT31;57848;51.938;15.520;2023-02-27T17:07:12;2.33;63.54
70421;SHT31;57848;51.938;15.520;2023-02-27T17:09:41;2.36;63.42
70421;SHT31;57848;51.938;15.520;2023-02-27T17:12:07;2.33;64.12
70421;SHT31;57848;51.938;15.520;2023-02-27T17:14:32;2.23;64.02
70421;SHT31;57848;51.938;15.520;2023-02-27T17:16:57;2.30;64.87
70421;SHT31;57848;51.938;15.520;2023-02-27T17:19:23;2.36;64.11
70421;SHT31;57848;51.938;15.520;2023-02-27T17:21:49;2.33;64.66
70421;SHT31;57848;51.938;15.520;2023-02-27T17:24:16;2.33;63.90
70421;SHT31;57848;51.938;15.520;2023-02-27T17:26:41;2.29;63.94
70421;SHT31;57848;51.938;15.520;2023-02-27T17:29:07;2.27;64.87
70421;SHT31;57848;51.938;15.520;2023-02-27T17:31:34;2.26;64.38
70421;SHT31;57848;51.938;15.520;2023-02-27T17:33:59;2.27;64.63
70421;SHT31;57848;51.938;15.520;2023-02-27T17:36:27;2.24;64.45
70421;SHT31;57848;51.938;15.520;2023-02-27T17:38:57;2.22;64.96
70421;SHT31;57848;51.938;15.520;2023-02-27T17:41:25;2.20;64.61
70421;SHT31;57848;51.938;15.520;2023-02-27T17:43:51;2.26;64.04
70421;SHT31;57848;51.938;15.520;2023-02-27T17:46:18;2.13;63.76
70421;SHT31;57848;51.938;15.520;2023-02-27T17:48:43;2.12;64.01
70421;SHT31;57848;51.938;15.520;2023-02-27T17:51:11;2.07;64.03
70421;SHT31;57848;51.938;15.520;2023-02-27T17:53:38;2.05;63.60
70421;SHT31;57848;51.938;15.520;2023-02-27T17:56:04;1.98;64.36
70421;SHT31;57848;51.938;15.520;2023-02-27T17:58:31;1.87;64.55
70421;SHT31;57848;51.938;15.520;2023-02-27T18:01:04;1.81;64.72
70421;SHT31;57848;51.938;15.520;2023-02-27T18:03:30;1.79;64.45
70421;SHT31;57848;51.938;15.520;2023-02-27T18:05:55;1.74;63.87
70421;SHT31;57848;51.938;15.520;2023-02-27T18:08:21;1.71;63.81
70421;SHT31;57848;51.938;15.520;2023-02-27T18:10:47;1.71;64.76
70421;SHT31;57848;51.938;15.520;2023-02-27T18:13:15;1.69;63.94
70421;SHT31;57848;51.938;15.520;2023-02-27T18:15:40;1.75;64.72
70421;SHT31;57848;51.938;15.520;2023-02-27T18:18:06;1.75;63.75
70421;SHT31;57848;51.938;15.520;2023-02-27T18:20:32;1.89;63.76